Time;durP1;ratioP1;P1;durP2;ratioP2;P2;SDS_P1;SDS_P2;PMS_P1;PMS_P2;Temp;Humidity;BMP_temperature;BMP_pressure;BME280_temperature;BME280_humidity;BME280_pressure;Samples;Min_cycle;Max_cycle;Signal;HPM_P1;HPM_P2
2022/06/28 00:01:34;;;;;;;;;;;14.80;99.90;;;;;;5072239;28;19943;-77
2022/06/28 00:03:59;;;;;;;;;;;14.80;99.90;;;;;;5072890;28;19911;-78
2022/06/28 00:06:25;;;;;;;;;;;14.80;99.90;;;;;;5072510;28;19916;-77
2022/06/28 00:08:51;;;;;;;;;;;14.90;99.90;;;;;;5073234;28;19904;-75
2022/06/28 00:11:16;;;;;;;;;;;14.90;99.90;;;;;;5073050;28;19904;-76
2022/06/28 00:13:42;;;;;;;;;;;14.90;99.90;;;;;;5073373;28;19908;-77
2022/06/28 00:16:08;;;;;;;;;;;14.90;99.90;;;;;;5073369;28;20247;-77
2022/06/28 00:18:35;;;;;;;;;;;15.00;99.90;;;;;;5072758;28;19919;-77
2022/06/28 00:21:02;;;;;;;;;;;15.00;99.90;;;;;;5073319;28;20274;-77
2022/06/28 00:23:30;;;;;;;;;;;15.00;99.90;;;;;;5072806;28;19957;-78
2022/06/28 00:25:56;;;;;;;;;;;15.00;99.90;;;;;;5073136;28;19912;-77
2022/06/28 00:28:21;;;;;;;;;;;15.10;99.90;;;;;;5072617;28;20265;-77
2022/06/28 00:30:47;;;;;;;;;;;15.10;99.90;;;;;;5072826;28;19904;-77
2022/06/28 00:33:13;;;;;;;;;;;15.10;99.90;;;;;;5072597;28;19904;-77
2022/06/28 00:35:38;;;;;;;;;;;15.10;99.90;;;;;;5072521;28;20428;-77
2022/06/28 00:38:04;;;;;;;;;;;15.10;99.90;;;;;;5072735;28;19931;-78
2022/06/28 00:40:31;;;;;;;;;;;15.10;99.90;;;;;;5072513;28;19904;-77
2022/06/28 00:42:56;;;;;;;;;;;15.10;99.90;;;;;;5073324;28;19995;-78
2022/06/28 00:45:22;;;;;;;;;;;15.20;99.90;;;;;;5072392;28;20024;-77
2022/06/28 00:47:48;;;;;;;;;;;15.20;99.90;;;;;;5072841;28;19905;-78
2022/06/28 00:50:14;;;;;;;;;;;15.20;99.90;;;;;;5072672;28;19944;-78
2022/06/28 00:52:58;;;;;;;;;;;15.20;99.90;;;;;;5072387;28;19978;-78
2022/06/28 00:55:23;;;;;;;;;;;15.20;99.90;;;;;;5071994;28;20030;-78
2022/06/28 00:57:49;;;;;;;;;;;15.20;99.90;;;;;;5072876;28;20354;-77
2022/06/28 01:00:15;;;;;;;;;;;15.10;99.90;;;;;;5073167;28;19912;-77
2022/06/28 01:02:40;;;;;;;;;;;15.20;99.90;;;;;;5071921;28;19919;-77
2022/06/28 01:05:06;;;;;;;;;;;15.20;99.90;;;;;;5072731;28;20269;-77
2022/06/28 01:07:32;;;;;;;;;;;15.10;99.90;;;;;;5072180;28;19961;-77
2022/06/28 01:09:57;;;;;;;;;;;15.10;99.90;;;;;;5072739;28;19904;-77
2022/06/28 01:12:23;;;;;;;;;;;15.00;99.90;;;;;;5072447;28;19904;-77
2022/06/28 01:14:48;;;;;;;;;;;15.00;99.90;;;;;;5072764;28;19905;-77
2022/06/28 01:17:14;;;;;;;;;;;15.00;99.90;;;;;;5072507;28;20378;-79
2022/06/28 01:19:39;;;;;;;;;;;15.00;99.90;;;;;;5072169;28;20000;-78
2022/06/28 01:22:07;;;;;;;;;;;15.00;99.90;;;;;;5072552;28;19908;-77
2022/06/28 01:24:34;;;;;;;;;;;15.00;99.90;;;;;;5072102;28;19908;-77
2022/06/28 01:27:00;;;;;;;;;;;15.00;99.90;;;;;;5072238;28;19916;-77
2022/06/28 01:29:26;;;;;;;;;;;15.00;99.90;;;;;;5053896;28;19904;-78
2022/06/28 01:31:52;;;;;;;;;;;15.00;99.90;;;;;;5071982;28;19908;-77
2022/06/28 01:34:18;;;;;;;;;;;15.00;99.90;;;;;;5072186;28;19974;-78
2022/06/28 01:36:43;;;;;;;;;;;15.00;99.90;;;;;;5071889;28;19971;-77
2022/06/28 01:39:09;;;;;;;;;;;15.00;99.90;;;;;;5054515;28;19910;-77
2022/06/28 01:41:36;;;;;;;;;;;15.10;99.90;;;;;;5071958;28;20258;-77
2022/06/28 01:44:03;;;;;;;;;;;15.10;99.90;;;;;;5054747;28;19909;-77
2022/06/28 01:46:29;;;;;;;;;;;15.10;99.90;;;;;;5072772;28;20477;-77
2022/06/28 01:48:55;;;;;;;;;;;15.10;99.90;;;;;;5075939;28;19935;-78
2022/06/28 01:51:20;;;;;;;;;;;15.10;99.90;;;;;;5076115;28;20314;-76
2022/06/28 01:53:46;;;;;;;;;;;15.10;99.90;;;;;;5075454;28;20018;-77
2022/06/28 01:56:12;;;;;;;;;;;15.10;99.90;;;;;;5076029;28;20414;-78
2022/06/28 01:58:38;;;;;;;;;;;15.10;99.90;;;;;;5074823;28;19962;-77
2022/06/28 02:01:04;;;;;;;;;;;15.10;99.90;;;;;;5075996;28;19905;-77
2022/06/28 02:03:30;;;;;;;;;;;15.20;99.90;;;;;;5074930;28;20415;-77
2022/06/28 02:05:55;;;;;;;;;;;15.20;99.90;;;;;;5075814;28;20011;-77
2022/06/28 02:08:21;;;;;;;;;;;15.20;99.90;;;;;;5075854;28;20042;-77
2022/06/28 02:10:46;;;;;;;;;;;15.20;99.90;;;;;;5075282;28;19950;-77
2022/06/28 02:13:12;;;;;;;;;;;15.20;99.90;;;;;;5075745;28;20305;-78
2022/06/28 02:15:38;;;;;;;;;;;15.20;99.90;;;;;;5075155;28;19908;-78
2022/06/28 02:18:03;;;;;;;;;;;15.20;99.90;;;;;;5075766;28;19904;-78
2022/06/28 02:20:29;;;;;;;;;;;15.20;99.90;;;;;;5074852;28;19905;-77
2022/06/28 02:22:54;;;;;;;;;;;15.20;99.90;;;;;;5075706;28;20259;-77
2022/06/28 02:25:20;;;;;;;;;;;15.20;99.90;;;;;;5075337;28;19960;-77
2022/06/28 02:27:47;;;;;;;;;;;15.20;99.90;;;;;;5074582;28;19994;-77
2022/06/28 02:30:13;;;;;;;;;;;15.20;99.90;;;;;;5075357;28;19908;-76
2022/06/28 02:32:38;;;;;;;;;;;15.30;99.90;;;;;;5056790;28;20240;-77
2022/06/28 02:40:32;;;;;;;;;;;15.30;99.90;;;;;;5074512;28;19911;-77
2022/06/28 02:42:59;;;;;;;;;;;15.30;99.90;;;;;;5075329;28;19904;-78
2022/06/28 02:45:25;;;;;;;;;;;15.30;99.90;;;;;;5075087;28;20030;-76
2022/06/28 02:47:51;;;;;;;;;;;15.30;99.90;;;;;;5074772;28;19939;-78
2022/06/28 02:50:17;;;;;;;;;;;15.30;99.90;;;;;;5075152;28;19904;-77
2022/06/28 02:52:43;;;;;;;;;;;15.30;99.90;;;;;;5074481;28;19962;-77
2022/06/28 02:55:09;;;;;;;;;;;15.30;99.90;;;;;;5075000;28;19911;-77
2022/06/28 02:57:36;;;;;;;;;;;15.40;99.90;;;;;;5073357;28;19912;-77
2022/06/28 03:00:09;;;;;;;;;;;15.40;99.90;;;;;;5074767;28;19909;-77
2022/06/28 03:02:35;;;;;;;;;;;15.40;99.90;;;;;;5074696;28;19927;-77
2022/06/28 03:05:05;;;;;;;;;;;15.40;99.90;;;;;;5056648;28;19908;-77
2022/06/28 03:07:30;;;;;;;;;;;15.40;99.90;;;;;;5074302;28;20239;-76
2022/06/28 03:09:56;;;;;;;;;;;15.40;99.90;;;;;;5074731;28;19911;-77
2022/06/28 03:12:21;;;;;;;;;;;15.40;99.90;;;;;;5074703;28;20271;-77
2022/06/28 03:14:47;;;;;;;;;;;15.50;99.90;;;;;;5074052;28;20521;-77
2022/06/28 03:17:12;;;;;;;;;;;15.40;99.90;;;;;;5074550;28;19904;-76
2022/06/28 03:19:38;;;;;;;;;;;15.40;99.90;;;;;;5073747;28;19910;-76
2022/06/28 03:22:03;;;;;;;;;;;15.40;99.90;;;;;;5074314;28;19926;-76
2022/06/28 03:24:29;;;;;;;;;;;15.40;99.90;;;;;;5073905;28;20259;-75
2022/06/28 03:26:55;;;;;;;;;;;15.40;99.90;;;;;;5074393;28;19951;-77
2022/06/28 03:29:20;;;;;;;;;;;15.40;99.90;;;;;;5074377;28;19908;-76
2022/06/28 03:31:46;;;;;;;;;;;15.40;99.90;;;;;;5073888;28;19910;-77
2022/06/28 03:34:11;;;;;;;;;;;15.40;99.90;;;;;;5074017;28;20369;-77
2022/06/28 03:36:37;;;;;;;;;;;15.40;99.90;;;;;;5055546;28;19912;-77
2022/06/28 03:39:03;;;;;;;;;;;15.40;99.90;;;;;;5074194;28;19940;-77
2022/06/28 03:41:28;;;;;;;;;;;15.40;99.90;;;;;;5073642;28;19905;-76
2022/06/28 03:43:54;;;;;;;;;;;15.30;99.90;;;;;;5073732;28;20334;-76
2022/06/28 03:46:20;;;;;;;;;;;15.30;99.90;;;;;;5073417;28;19913;-77
2022/06/28 03:48:46;;;;;;;;;;;15.40;99.90;;;;;;5073271;28;19904;-77
2022/06/28 03:51:12;;;;;;;;;;;15.30;99.90;;;;;;5074045;28;19908;-77
2022/06/28 03:53:38;;;;;;;;;;;15.30;99.90;;;;;;5073226;28;19912;-77
2022/06/28 03:56:04;;;;;;;;;;;15.40;99.90;;;;;;5073544;28;20271;-76
2022/06/28 03:58:30;;;;;;;;;;;15.40;99.90;;;;;;5073327;28;20018;-75
2022/06/28 04:00:55;;;;;;;;;;;15.40;99.90;;;;;;5073368;28;19904;-76
2022/06/28 04:03:21;;;;;;;;;;;15.40;99.90;;;;;;5073754;28;19905;-76
2022/06/28 04:05:46;;;;;;;;;;;15.40;99.90;;;;;;5072595;28;19999;-76
2022/06/28 04:08:12;;;;;;;;;;;15.40;99.90;;;;;;5073199;28;20377;-77
2022/06/28 04:10:38;;;;;;;;;;;15.40;99.90;;;;;;5072705;28;19940;-76
2022/06/28 04:13:03;;;;;;;;;;;15.40;99.90;;;;;;5073578;28;19904;-76
2022/06/28 04:15:29;;;;;;;;;;;15.40;99.90;;;;;;5073509;28;19904;-77
2022/06/28 04:17:55;;;;;;;;;;;15.40;99.90;;;;;;5072826;28;19904;-77
2022/06/28 04:20:20;;;;;;;;;;;15.40;99.90;;;;;;5073364;28;19904;-76
2022/06/28 04:22:46;;;;;;;;;;;15.30;99.90;;;;;;5072770;28;19912;-76
2022/06/28 04:25:11;;;;;;;;;;;15.40;99.90;;;;;;5072825;28;19923;-76
2022/06/28 04:27:37;;;;;;;;;;;15.30;99.90;;;;;;5073053;28;20359;-76
2022/06/28 04:30:03;;;;;;;;;;;15.30;99.90;;;;;;5055322;28;19911;-77
2022/06/28 04:32:29;;;;;;;;;;;15.30;99.90;;;;;;5073198;28;20394;-76
2022/06/28 04:34:55;;;;;;;;;;;15.20;99.90;;;;;;5072166;28;19920;-77
2022/06/28 04:37:21;;;;;;;;;;;15.20;99.90;;;;;;5072932;28;19904;-77
2022/06/28 04:39:46;;;;;;;;;;;15.20;99.90;;;;;;5072726;28;20331;-77
2022/06/28 04:42:12;;;;;;;;;;;15.20;99.90;;;;;;5072640;28;19909;-77
2022/06/28 04:44:38;;;;;;;;;;;15.20;99.90;;;;;;5072236;28;19905;-77
2022/06/28 04:47:04;;;;;;;;;;;15.20;99.90;;;;;;5072847;28;20355;-78
2022/06/28 04:49:29;;;;;;;;;;;15.10;99.90;;;;;;5072861;28;19911;-77
2022/06/28 04:51:55;;;;;;;;;;;15.10;99.90;;;;;;5072419;28;19922;-77
2022/06/28 04:54:21;;;;;;;;;;;15.10;99.90;;;;;;5072677;28;19954;-78
2022/06/28 04:56:46;;;;;;;;;;;15.10;99.90;;;;;;5072424;28;20350;-77
2022/06/28 04:59:12;;;;;;;;;;;15.00;99.90;;;;;;5072884;28;20358;-77
2022/06/28 05:01:37;;;;;;;;;;;15.00;99.90;;;;;;5072248;28;19904;-77
2022/06/28 05:04:03;;;;;;;;;;;15.00;99.90;;;;;;5072487;28;19904;-77
2022/06/28 05:06:29;;;;;;;;;;;14.90;99.90;;;;;;5072535;28;19912;-78
2022/06/28 05:08:56;;;;;;;;;;;14.90;99.90;;;;;;5072094;28;19987;-78
2022/06/28 05:11:22;;;;;;;;;;;14.90;99.90;;;;;;5072803;28;19963;-78
2022/06/28 05:13:47;;;;;;;;;;;14.80;99.90;;;;;;5072204;28;20062;-77
2022/06/28 05:16:13;;;;;;;;;;;14.80;99.90;;;;;;5072522;28;19911;-77
2022/06/28 05:18:38;;;;;;;;;;;14.80;99.90;;;;;;5072436;28;19927;-77
2022/06/28 05:21:04;;;;;;;;;;;14.70;99.90;;;;;;5073470;28;19904;-78
2022/06/28 05:23:30;;;;;;;;;;;14.80;99.90;;;;;;5076817;28;19904;-77
2022/06/28 05:25:55;;;;;;;;;;;14.80;99.90;;;;;;5075953;28;20509;-78
2022/06/28 05:28:21;;;;;;;;;;;14.80;99.90;;;;;;5077062;28;20395;-78
2022/06/28 05:30:46;;;;;;;;;;;14.80;99.90;;;;;;5076273;28;19904;-78
2022/06/28 05:33:12;;;;;;;;;;;14.80;99.90;;;;;;5076603;28;19948;-78
2022/06/28 05:35:38;;;;;;;;;;;14.80;99.90;;;;;;5076041;28;19916;-76
2022/06/28 05:38:03;;;;;;;;;;;14.80;99.90;;;;;;5076656;28;19990;-79
2022/06/28 05:40:29;;;;;;;;;;;14.80;99.90;;;;;;5076567;28;19911;-80
2022/06/28 05:42:55;;;;;;;;;;;14.80;99.90;;;;;;5075481;28;19911;-79
2022/06/28 05:45:20;;;;;;;;;;;14.80;99.90;;;;;;5076425;28;20283;-78
2022/06/28 05:47:46;;;;;;;;;;;14.80;99.90;;;;;;5075725;28;19950;-78
2022/06/28 05:50:12;;;;;;;;;;;14.90;99.90;;;;;;5076060;28;19958;-77
2022/06/28 05:52:37;;;;;;;;;;;14.90;99.90;;;;;;5075826;28;19904;-76
2022/06/28 05:55:03;;;;;;;;;;;15.00;99.90;;;;;;5075892;28;19905;-78
2022/06/28 05:57:28;;;;;;;;;;;15.00;99.90;;;;;;5075781;28;19904;-78
2022/06/28 05:59:54;;;;;;;;;;;15.10;99.90;;;;;;5057366;28;20251;-78
2022/06/28 06:02:20;;;;;;;;;;;15.10;99.90;;;;;;5075832;28;19908;-78
2022/06/28 06:04:45;;;;;;;;;;;15.10;99.90;;;;;;5075267;28;19912;-80
2022/06/28 06:07:11;;;;;;;;;;;15.10;99.90;;;;;;5075668;28;20105;-79
2022/06/28 06:09:37;;;;;;;;;;;15.10;99.90;;;;;;5075320;28;19910;-79
2022/06/28 06:12:03;;;;;;;;;;;15.10;99.90;;;;;;5075498;28;19904;-80
2022/06/28 06:14:29;;;;;;;;;;;15.10;99.90;;;;;;5075696;28;19930;-79
2022/06/28 06:16:55;;;;;;;;;;;15.10;99.90;;;;;;5075127;28;19908;-78
2022/06/28 06:19:20;;;;;;;;;;;15.10;99.90;;;;;;5075177;28;20373;-78
2022/06/28 06:21:46;;;;;;;;;;;15.00;99.90;;;;;;5075138;28;19904;-78
2022/06/28 06:24:12;;;;;;;;;;;15.00;99.90;;;;;;5075284;28;19944;-78
2022/06/28 06:26:38;;;;;;;;;;;15.00;99.90;;;;;;5075807;28;20382;-78
2022/06/28 06:29:04;;;;;;;;;;;15.00;99.90;;;;;;5074972;28;19936;-77
2022/06/28 06:31:29;;;;;;;;;;;15.00;99.90;;;;;;5075455;28;19948;-79
2022/06/28 06:33:55;;;;;;;;;;;15.00;99.90;;;;;;5074406;28;19966;-80
2022/06/28 06:36:21;;;;;;;;;;;15.00;99.90;;;;;;5075416;28;19904;-78
2022/06/28 06:38:47;;;;;;;;;;;15.00;99.90;;;;;;5074437;28;19944;-80
2022/06/28 06:41:13;;;;;;;;;;;15.10;99.90;;;;;;5075321;28;19936;-79
2022/06/28 06:43:39;;;;;;;;;;;15.10;99.90;;;;;;5075041;28;19919;-78
2022/06/28 06:46:04;;;;;;;;;;;15.10;99.90;;;;;;5074729;28;20011;-77
2022/06/28 06:48:30;;;;;;;;;;;15.20;99.90;;;;;;5075395;28;19971;-77
2022/06/28 06:50:55;;;;;;;;;;;15.10;99.90;;;;;;5074405;28;20000;-77
2022/06/28 06:53:21;;;;;;;;;;;15.20;99.90;;;;;;5075035;28;20286;-78
2022/06/28 06:55:47;;;;;;;;;;;15.20;99.90;;;;;;5074173;28;19905;-76
2022/06/28 06:58:13;;;;;;;;;;;15.20;99.90;;;;;;5074580;28;19998;-77
2022/06/28 07:00:39;;;;;;;;;;;15.30;99.90;;;;;;5074849;28;19910;-77
2022/06/28 07:03:05;;;;;;;;;;;15.30;99.90;;;;;;5074092;28;19931;-78
2022/06/28 07:05:31;;;;;;;;;;;15.40;99.90;;;;;;5074443;28;20339;-77
2022/06/28 07:07:56;;;;;;;;;;;15.40;99.90;;;;;;5074016;28;20027;-77
2022/06/28 07:10:22;;;;;;;;;;;15.40;99.90;;;;;;5074655;28;20011;-77
2022/06/28 07:12:47;;;;;;;;;;;15.40;99.90;;;;;;5074063;28;19904;-77
2022/06/28 07:15:13;;;;;;;;;;;15.40;99.90;;;;;;5056870;28;19992;-78
2022/06/28 07:17:39;;;;;;;;;;;15.40;99.90;;;;;;5074075;28;19932;-78
2022/06/28 07:20:04;;;;;;;;;;;15.30;99.90;;;;;;5055802;28;19991;-80
2022/06/28 07:22:30;;;;;;;;;;;15.40;99.90;;;;;;5074488;28;19905;-79
2022/06/28 07:24:56;;;;;;;;;;;15.30;99.90;;;;;;5055715;28;19908;-78
2022/06/28 07:27:22;;;;;;;;;;;15.30;99.90;;;;;;5074283;28;19957;-80
2022/06/28 07:29:48;;;;;;;;;;;15.30;99.90;;;;;;5073787;28;19904;-77
2022/06/28 07:32:14;;;;;;;;;;;15.30;99.90;;;;;;5074319;28;19912;-81
2022/06/28 07:34:40;;;;;;;;;;;15.20;99.90;;;;;;5073781;28;19999;-79
2022/06/28 07:37:06;;;;;;;;;;;15.20;99.90;;;;;;5073611;28;19918;-78
2022/06/28 07:39:31;;;;;;;;;;;15.20;99.90;;;;;;5073946;28;19926;-79
2022/06/28 07:41:57;;;;;;;;;;;15.20;99.90;;;;;;5073496;28;19911;-79
2022/06/28 07:44:22;;;;;;;;;;;15.20;99.90;;;;;;5073639;28;19959;-78
2022/06/28 07:46:48;;;;;;;;;;;15.20;99.90;;;;;;5073203;28;20026;-77
2022/06/28 07:49:14;;;;;;;;;;;15.20;99.90;;;;;;5071127;28;20384;-76
2022/06/28 07:54:24;;;;;;;;;;;15.30;99.90;;;;;;5073384;28;20384;-78
2022/06/28 07:56:49;;;;;;;;;;;15.30;99.90;;;;;;5072842;28;19904;-78
2022/06/28 07:59:15;;;;;;;;;;;15.30;99.90;;;;;;5073899;28;20273;-80
2022/06/28 08:01:40;;;;;;;;;;;15.30;99.90;;;;;;5073405;28;19943;-80
2022/06/28 08:04:07;;;;;;;;;;;15.30;99.90;;;;;;5055121;28;20696;-78
2022/06/28 08:06:33;;;;;;;;;;;15.30;99.90;;;;;;5073366;28;19912;-83
2022/06/28 08:08:59;;;;;;;;;;;15.30;99.90;;;;;;5072843;28;19911;-79
2022/06/28 08:11:25;;;;;;;;;;;15.20;99.90;;;;;;5073217;28;19911;-78
2022/06/28 08:13:52;;;;;;;;;;;15.20;99.90;;;;;;5072495;28;19950;-80
2022/06/28 08:16:17;;;;;;;;;;;15.20;99.90;;;;;;5072896;28;19904;-81
2022/06/28 08:18:44;;;;;;;;;;;15.20;99.90;;;;;;5073001;28;20428;-79
2022/06/28 08:21:09;;;;;;;;;;;15.20;99.90;;;;;;5054709;28;19904;-79
2022/06/28 08:23:35;;;;;;;;;;;15.30;99.90;;;;;;5072947;28;19904;-78
2022/06/28 08:26:01;;;;;;;;;;;15.30;99.90;;;;;;5072489;28;20274;-77
2022/06/28 08:28:26;;;;;;;;;;;15.40;99.90;;;;;;5072676;28;20045;-77
2022/06/28 08:30:52;;;;;;;;;;;15.40;99.90;;;;;;5072445;28;20003;-78
2022/06/28 08:33:18;;;;;;;;;;;15.40;99.90;;;;;;5073248;28;20348;-78
2022/06/28 08:35:43;;;;;;;;;;;15.50;99.90;;;;;;5071968;28;19927;-78
2022/06/28 08:38:09;;;;;;;;;;;15.50;99.90;;;;;;5071696;28;20362;-78
2022/06/28 08:40:35;;;;;;;;;;;15.50;99.90;;;;;;5072389;28;20251;-78
2022/06/28 08:43:01;;;;;;;;;;;15.60;99.90;;;;;;5071763;28;20373;-77
2022/06/28 08:45:27;;;;;;;;;;;15.60;99.90;;;;;;5071820;28;19912;-77
2022/06/28 08:47:54;;;;;;;;;;;15.60;99.90;;;;;;5071519;28;19991;-77
2022/06/28 08:50:28;;;;;;;;;;;15.60;99.90;;;;;;5072068;28;19911;-77
2022/06/28 08:52:54;;;;;;;;;;;15.70;99.90;;;;;;5071494;28;19908;-77
2022/06/28 08:55:20;;;;;;;;;;;15.70;99.90;;;;;;5071628;28;19904;-77
2022/06/28 08:57:46;;;;;;;;;;;15.80;99.90;;;;;;5071326;28;20278;-77
2022/06/28 09:00:12;;;;;;;;;;;15.80;99.90;;;;;;5071725;28;19915;-77
2022/06/28 09:02:38;;;;;;;;;;;15.90;99.90;;;;;;5070052;28;19908;-76
2022/06/28 09:05:04;;;;;;;;;;;15.90;99.90;;;;;;5070879;28;19911;-76
2022/06/28 09:07:29;;;;;;;;;;;16.00;99.90;;;;;;5071870;28;20316;-76
2022/06/28 09:09:55;;;;;;;;;;;16.00;99.90;;;;;;5071145;28;19912;-76
2022/06/28 09:12:21;;;;;;;;;;;16.10;99.90;;;;;;5071806;28;19912;-77
2022/06/28 09:14:47;;;;;;;;;;;16.10;99.90;;;;;;5070818;28;20697;-76
2022/06/28 09:17:17;;;;;;;;;;;16.10;99.90;;;;;;5071903;28;19916;-76
2022/06/28 09:19:42;;;;;;;;;;;16.10;99.90;;;;;;5071464;28;19915;-76
2022/06/28 09:22:08;;;;;;;;;;;16.10;99.90;;;;;;5071259;28;19904;-76
2022/06/28 09:24:34;;;;;;;;;;;16.10;99.90;;;;;;5071621;28;19911;-76
2022/06/28 09:27:01;;;;;;;;;;;16.10;99.90;;;;;;5070878;28;19916;-76
2022/06/28 09:29:26;;;;;;;;;;;16.10;99.90;;;;;;5071530;28;19904;-76
2022/06/28 09:31:52;;;;;;;;;;;16.10;99.90;;;;;;5070881;28;19979;-77
2022/06/28 09:34:17;;;;;;;;;;;16.20;99.90;;;;;;5071470;28;19935;-75
2022/06/28 09:36:57;;;;;;;;;;;16.20;99.90;;;;;;5071354;28;19917;-75
2022/06/28 09:39:26;;;;;;;;;;;16.30;99.90;;;;;;5071504;28;19970;-75
2022/06/28 09:41:53;;;;;;;;;;;16.40;99.90;;;;;;5070810;28;20345;-75
2022/06/28 09:44:25;;;;;;;;;;;16.40;99.90;;;;;;5071075;28;20003;-75
2022/06/28 09:46:52;;;;;;;;;;;16.50;99.90;;;;;;5070635;28;19952;-75
2022/06/28 09:49:18;;;;;;;;;;;16.50;99.90;;;;;;5071465;28;19988;-75
2022/06/28 09:51:44;;;;;;;;;;;16.60;99.90;;;;;;5071507;28;20004;-75
2022/06/28 09:54:10;;;;;;;;;;;16.60;99.90;;;;;;5053156;28;20363;-75
2022/06/28 09:56:35;;;;;;;;;;;16.70;99.90;;;;;;5071518;28;19911;-75
2022/06/28 09:59:01;;;;;;;;;;;16.80;99.90;;;;;;5070901;28;19905;-73
2022/06/28 10:01:27;;;;;;;;;;;16.80;99.90;;;;;;5071395;28;19905;-75
2022/06/28 10:03:53;;;;;;;;;;;16.90;99.90;;;;;;5070459;28;19908;-75
2022/06/28 10:06:21;;;;;;;;;;;17.00;99.90;;;;;;5071186;28;19912;-75
2022/06/28 10:08:48;;;;;;;;;;;17.00;99.90;;;;;;5074032;28;20324;-75
2022/06/28 10:11:14;;;;;;;;;;;17.00;99.90;;;;;;5075068;28;19927;-75
2022/06/28 10:16:27;;;;;;;;;;;17.20;99.90;;;;;;5074691;28;19953;-76
2022/06/28 10:18:54;;;;;;;;;;;17.30;99.90;;;;;;5074142;28;20314;-76
2022/06/28 10:21:38;;;;;;;;;;;17.30;99.90;;;;;;5074994;28;19904;-77
2022/06/28 10:24:04;;;;;;;;;;;17.30;99.90;;;;;;5074150;28;19911;-80
2022/06/28 10:26:29;;;;;;;;;;;17.30;99.90;;;;;;5074706;28;19912;-82
2022/06/28 10:29:02;;;;;;;;;;;17.10;99.90;;;;;;5074316;28;20270;-81
2022/06/28 10:31:29;;;;;;;;;;;17.00;99.90;;;;;;5074805;28;20364;-81
2022/06/28 10:33:56;;;;;;;;;;;16.90;99.90;;;;;;5056172;28;19904;-79
2022/06/28 10:36:23;;;;;;;;;;;16.80;99.90;;;;;;5074508;28;19924;-78
2022/06/28 10:39:00;;;;;;;;;;;16.80;99.90;;;;;;5073760;28;20389;-77
2022/06/28 10:41:45;;;;;;;;;;;16.80;99.90;;;;;;5074130;28;19904;-77
2022/06/28 10:44:10;;;;;;;;;;;16.70;99.90;;;;;;5073618;28;20433;-77
2022/06/28 10:46:36;;;;;;;;;;;16.70;99.90;;;;;;5074115;28;19913;-77
2022/06/28 10:49:04;;;;;;;;;;;16.70;99.90;;;;;;5073715;28;19908;-77
2022/06/28 10:51:30;;;;;;;;;;;16.70;99.90;;;;;;5074143;28;19904;-77
2022/06/28 10:54:01;;;;;;;;;;;16.70;99.90;;;;;;5073723;28;19910;-76
2022/06/28 10:56:27;;;;;;;;;;;16.70;99.90;;;;;;5074187;28;19911;-76
2022/06/28 10:58:53;;;;;;;;;;;16.70;99.90;;;;;;5073023;28;20366;-77
2022/06/28 11:01:39;;;;;;;;;;;16.70;99.90;;;;;;5074428;28;20404;-80
2022/06/28 11:04:20;;;;;;;;;;;16.70;99.90;;;;;;5055268;28;20730;-79
2022/06/28 11:06:46;;;;;;;;;;;16.80;99.90;;;;;;5073544;28;19912;-79
2022/06/28 11:09:18;;;;;;;;;;;16.70;99.90;;;;;;5074100;28;19915;-80
2022/06/28 11:12:06;;;;;;;;;;;16.70;99.90;;;;;;5073506;28;19958;-79
2022/06/28 11:14:35;;;;;;;;;;;16.70;99.90;;;;;;5047738;28;20328;-81
2022/06/28 11:17:12;;;;;;;;;;;16.80;99.90;;;;;;5055281;28;19915;-80
2022/06/28 11:19:37;;;;;;;;;;;17.10;99.90;;;;;;5072809;28;19912;-79
2022/06/28 11:22:03;;;;;;;;;;;17.30;99.90;;;;;;5073358;28;19904;-77
2022/06/28 11:24:29;;;;;;;;;;;17.40;99.90;;;;;;5073598;28;19904;-77
2022/06/28 11:29:46;;;;;;;;;;;17.70;99.90;;;;;;5073090;28;19997;-77
2022/06/28 11:32:15;;;;;;;;;;;18.00;99.90;;;;;;5073555;28;19912;-77
2022/06/28 11:34:41;;;;;;;;;;;18.10;99.90;;;;;;5072930;28;19937;-76
2022/06/28 11:37:08;;;;;;;;;;;18.40;99.90;;;;;;5072827;28;19920;-77
2022/06/28 11:39:33;;;;;;;;;;;18.60;99.90;;;;;;5073448;28;20007;-75
2022/06/28 11:41:59;;;;;;;;;;;18.70;99.90;;;;;;5072814;28;19935;-76
2022/06/28 11:44:25;;;;;;;;;;;18.70;99.90;;;;;;5073555;28;19912;-76
2022/06/28 11:46:51;;;;;;;;;;;18.70;99.90;;;;;;5072882;28;20359;-75
2022/06/28 11:49:27;;;;;;;;;;;18.60;99.90;;;;;;5073525;28;19943;-75
2022/06/28 11:51:52;;;;;;;;;;;18.70;99.90;;;;;;5055166;28;20362;-75
2022/06/28 11:54:20;;;;;;;;;;;18.80;99.90;;;;;;5073555;28;19911;-75
2022/06/28 11:56:47;;;;;;;;;;;18.80;99.90;;;;;;5055314;28;19908;-75
2022/06/28 11:59:13;;;;;;;;;;;18.80;99.90;;;;;;5073227;28;20374;-75
2022/06/28 12:01:39;;;;;;;;;;;18.80;99.90;;;;;;5073398;28;19904;-75
2022/06/28 12:04:07;;;;;;;;;;;18.80;99.90;;;;;;5072713;28;19912;-76
2022/06/28 12:06:34;;;;;;;;;;;18.80;99.90;;;;;;5073097;28;20011;-76
2022/06/28 12:09:04;;;;;;;;;;;18.80;99.90;;;;;;5072666;28;19911;-76
2022/06/28 12:11:33;;;;;;;;;;;18.80;99.90;;;;;;5073280;28;19911;-75
2022/06/28 12:14:15;;;;;;;;;;;18.80;99.90;;;;;;5072614;28;19905;-76
2022/06/28 12:16:57;;;;;;;;;;;18.70;99.90;;;;;;5072870;28;19958;-76
2022/06/28 12:19:27;;;;;;;;;;;18.90;99.90;;;;;;5072900;28;20303;-76
2022/06/28 12:22:05;;;;;;;;;;;18.90;99.90;;;;;;5054736;28;20390;-76
2022/06/28 12:24:39;;;;;;;;;;;19.10;99.90;;;;;;5072644;28;20351;-76
2022/06/28 12:27:05;;;;;;;;;;;19.10;99.90;;;;;;5072298;28;19919;-76
2022/06/28 12:29:31;;;;;;;;;;;19.20;99.90;;;;;;5072632;28;20006;-76
2022/06/28 12:31:56;;;;;;;;;;;19.30;99.90;;;;;;5071966;28;20247;-76
2022/06/28 12:34:22;;;;;;;;;;;19.40;99.90;;;;;;5072605;28;19909;-77
2022/06/28 12:36:47;;;;;;;;;;;19.50;99.90;;;;;;5072070;28;20614;-75
2022/06/28 12:39:13;;;;;;;;;;;19.60;99.90;;;;;;5072289;28;19908;-76
2022/06/28 12:41:39;;;;;;;;;;;19.60;99.90;;;;;;5072869;28;19910;-77
2022/06/28 12:44:04;;;;;;;;;;;19.60;99.90;;;;;;5071883;28;20273;-77
2022/06/28 12:46:30;;;;;;;;;;;19.60;99.90;;;;;;5072486;28;19958;-77
2022/06/28 12:48:55;;;;;;;;;;;19.60;99.90;;;;;;5054161;28;20274;-76
2022/06/28 12:51:21;;;;;;;;;;;19.70;99.90;;;;;;5072555;28;20346;-79
2022/06/28 12:53:47;;;;;;;;;;;19.70;99.90;;;;;;5072519;28;19904;-78
2022/06/28 12:56:15;;;;;;;;;;;19.60;99.90;;;;;;5072043;28;20359;-77
2022/06/28 12:58:42;;;;;;;;;;;19.70;99.90;;;;;;5072280;28;20317;-77
2022/06/28 13:01:07;;;;;;;;;;;19.80;99.90;;;;;;5072086;28;20441;-77
2022/06/28 13:03:33;;;;;;;;;;;20.00;99.90;;;;;;5072834;28;20003;-77
2022/06/28 13:05:58;;;;;;;;;;;20.30;99.90;;;;;;5071923;28;19936;-77
2022/06/28 13:08:24;;;;;;;;;;;20.30;99.90;;;;;;5072505;28;19905;-77
2022/06/28 13:10:49;;;;;;;;;;;20.20;99.90;;;;;;5071889;28;19915;-77
2022/06/28 13:13:19;;;;;;;;;;;20.20;99.90;;;;;;5071817;28;19909;-77
2022/06/28 13:15:45;;;;;;;;;;;20.10;99.90;;;;;;5071715;28;19905;-77
2022/06/28 13:18:10;;;;;;;;;;;20.10;99.90;;;;;;5071610;28;19927;-77
2022/06/28 13:20:36;;;;;;;;;;;20.10;99.90;;;;;;5072280;28;19974;-76
2022/06/28 13:23:03;;;;;;;;;;;20.00;99.90;;;;;;5071489;28;19937;-76
2022/06/28 13:25:28;;;;;;;;;;;19.90;99.90;;;;;;5072192;28;20350;-75
2022/06/28 13:27:54;;;;;;;;;;;19.80;99.90;;;;;;5071690;28;19962;-75
2022/06/28 13:30:19;;;;;;;;;;;19.70;99.90;;;;;;5072269;28;19954;-76
2022/06/28 13:32:45;;;;;;;;;;;19.60;99.90;;;;;;5072162;28;19931;-76
2022/06/28 13:35:11;;;;;;;;;;;19.60;99.90;;;;;;5071350;28;20504;-76
2022/06/28 13:37:36;;;;;;;;;;;19.50;99.90;;;;;;5072009;28;19912;-76
2022/06/28 13:40:02;;;;;;;;;;;19.40;99.90;;;;;;5071396;28;19908;-76
2022/06/28 13:42:28;;;;;;;;;;;19.50;99.90;;;;;;5073151;28;19999;-76
2022/06/28 13:44:53;;;;;;;;;;;19.70;99.90;;;;;;5057276;28;20023;-75
2022/06/28 13:47:19;;;;;;;;;;;19.90;99.90;;;;;;5057848;28;19912;-75
2022/06/28 13:49:45;;;;;;;;;;;19.90;99.90;;;;;;5075926;28;19966;-75
2022/06/28 13:52:11;;;;;;;;;;;19.80;99.90;;;;;;5075256;28;20625;-75
2022/06/28 13:54:36;;;;;;;;;;;19.70;99.90;;;;;;5075437;28;19904;-76
2022/06/28 13:57:02;;;;;;;;;;;19.70;99.90;;;;;;5075307;28;19955;-75
2022/06/28 13:59:28;;;;;;;;;;;19.70;99.90;;;;;;5075876;28;19998;-76
2022/06/28 14:01:53;;;;;;;;;;;19.80;99.90;;;;;;5074869;28;19963;-76
2022/06/28 14:04:19;;;;;;;;;;;20.00;99.90;;;;;;5075470;28;19929;-76
2022/06/28 14:06:45;;;;;;;;;;;20.20;99.90;;;;;;5075340;28;19912;-76
2022/06/28 14:09:10;;;;;;;;;;;20.20;99.90;;;;;;5075011;28;20262;-76
2022/06/28 14:11:36;;;;;;;;;;;20.00;99.90;;;;;;5075137;28;19912;-75
2022/06/28 14:14:01;;;;;;;;;;;20.10;99.90;;;;;;5074719;28;19904;-78
2022/06/28 14:16:27;;;;;;;;;;;20.30;99.90;;;;;;5057258;28;19963;-76
2022/06/28 14:18:53;;;;;;;;;;;20.30;99.90;;;;;;5075142;28;19911;-76
2022/06/28 14:21:18;;;;;;;;;;;20.30;99.90;;;;;;5075165;28;19904;-76
2022/06/28 14:23:44;;;;;;;;;;;20.30;99.90;;;;;;5075115;28;20005;-76
2022/06/28 14:26:09;;;;;;;;;;;20.30;99.90;;;;;;5074473;28;19916;-76